Airfield :
LOGIN :

Register | Disclaimer

   EN    FR    IT 

 










Legend :    VFR   Marginal VFR   IFR   Intensive IFR   Very Intensive IFR
Visi :
Ceiling :
>= 8 km
>= 3000ft
5 to 8 km
1000 to 3000 ft
1500m to 5 km
500 to 1000 ft
800 to 1500m
200 to 500 ft
< 800m
< 200 ft
Symbols :   Thunderstorms  Fog  Heavy snow  Heavy precipitations  Wind > 20 kt
SIGMETs :     Misc.  Thunderstorms  Icing  Turbulence  Mountain Waves  Volcanic Ashes







- Airport Elevation : 821 ft
- IATA code : LYS
- Download approach charts


LFLL - Lyon St Exupéry / Satolas

CURRENT METAR :
  • 171630Z 04005KT 360V080 CAVOK 30/15 Q1018 NOSIG

EXPIRED METARs :
  • 171600Z 04006KT 350V070 CAVOK 30/15 Q1018 NOSIG
  • 171530Z VRB03KT CAVOK 30/15 Q1018 NOSIG
  • 171500Z VRB02KT CAVOK 30/15 Q1018 NOSIG
  • 171430Z VRB02KT CAVOK 30/15 Q1019 NOSIG
  • 171400Z VRB03KT CAVOK 30/16 Q1019 NOSIG

TAF TAF LFLL
Valid from the 17 at 12:00 until the 18 at 18:00 UTC


171100Z 1712/1818 35012KT CAVOK
BECMG 1714/1716 07012KT
BECMG 1721/1723 VRB02KT
BECMG 1809/1811 21012KT
BECMG 1811/1813 33012KT
TEMPO 1813/1818 33015G25KT 4500 SHRA FEW050CB BKN060TCU
PROB40
TEMPO 1813/1816 VRB20G35KT 2000 TSRA SCT014 BKN030CB
No reported NOTAMs for that airfield.



MET'MAP, your aeronautical weather chart ! - Copyright ORBIFLY December 2007 - Disclaimer

ORBIFLY MET'MAP TEAM :

Programming & Development : Alexandra Zaïnal
Concept & Development : Baudouin d'Aumeries
Co-Development & Prog : Marc-Olivier Méhu
Technical & hardware support : Manuel Goepfert

Contact : metmap@orbifly.com




SOURCES & CREDITS :

   NOAA